createdAt,value
2018-03-26T00:00:35.964Z,5.25
2018-03-26T00:01:35.969Z,5.41
2018-03-26T00:02:35.977Z,5.48
2018-03-26T00:03:35.984Z,5.46
2018-03-26T00:04:35.991Z,5.46
2018-03-26T00:05:35.997Z,5.59
2018-03-26T00:06:36.001Z,5.66
2018-03-26T00:07:36.007Z,5.83
2018-03-26T00:08:36.016Z,5.77
2018-03-26T00:09:36.022Z,5.73
2018-03-26T00:10:36.032Z,5.59
2018-03-26T00:11:36.037Z,5.59
2018-03-26T00:12:36.041Z,5.50
2018-03-26T00:13:36.048Z,5.43
2018-03-26T00:14:36.061Z,5.40
2018-03-26T00:15:36.064Z,5.37
2018-03-26T00:16:36.069Z,5.43
2018-03-26T00:17:36.074Z,5.59
2018-03-26T00:18:36.080Z,5.59
2018-03-26T00:19:36.088Z,5.66
2018-03-26T00:20:36.096Z,5.67
2018-03-26T00:21:36.102Z,5.71
2018-03-26T00:22:36.109Z,5.78
2018-03-26T00:23:36.114Z,5.75
2018-03-26T00:24:36.121Z,5.83
2018-03-26T00:25:36.134Z,5.82
2018-03-26T00:26:36.133Z,5.82
2018-03-26T00:27:43.876Z,5.74
2018-03-26T00:29:40.649Z,5.73
2018-03-26T00:30:40.629Z,5.67
2018-03-26T00:31:40.732Z,5.64
2018-03-26T00:32:40.689Z,5.46
2018-03-26T00:33:40.668Z,5.38
2018-03-26T00:34:41.546Z,5.46
2018-03-26T00:35:40.666Z,5.53
2018-03-26T00:36:40.703Z,5.49
2018-03-26T00:37:40.681Z,5.43
2018-03-26T00:38:40.681Z,5.32
2018-03-26T00:39:40.706Z,5.23
2018-03-26T00:40:40.700Z,5.13
2018-03-26T00:41:40.713Z,5.17
2018-03-26T00:42:40.714Z,5.09
2018-03-26T00:43:40.717Z,5.17
2018-03-26T00:44:40.757Z,5.20
2018-03-26T00:45:40.728Z,5.13
2018-03-26T00:46:40.735Z,5.20
2018-03-26T00:47:40.741Z,5.16
2018-03-26T00:48:40.760Z,5.31
2018-03-26T00:49:40.758Z,5.30
2018-03-26T00:50:40.763Z,5.28
2018-03-26T00:51:40.772Z,5.38
2018-03-26T00:52:40.780Z,5.28
2018-03-26T00:53:40.780Z,5.43
2018-03-26T00:54:40.800Z,5.40
2018-03-26T00:55:40.794Z,5.38
2018-03-26T00:56:40.802Z,5.38
2018-03-26T00:57:40.808Z,5.41
2018-03-26T00:58:40.833Z,5.43
2018-03-26T00:59:40.820Z,5.40
2018-03-26T01:00:40.831Z,5.40
2018-03-26T01:01:40.836Z,5.38
2018-03-26T01:02:40.840Z,5.43
2018-03-26T01:03:40.848Z,5.41
2018-03-26T01:04:40.852Z,5.45
2018-03-26T01:05:40.860Z,5.40
2018-03-26T01:06:40.865Z,5.38
2018-03-26T01:07:40.872Z,5.35
2018-03-26T01:08:40.880Z,5.25
2018-03-26T01:09:40.884Z,5.20
2018-03-26T01:10:40.891Z,5.02
2018-03-26T01:11:40.918Z,4.96
2018-03-26T01:12:40.912Z,4.95
2018-03-26T01:13:40.912Z,5.13
2018-03-26T01:14:40.926Z,5.07
2018-03-26T01:15:40.985Z,5.09
2018-03-26T01:16:40.929Z,5.20
2018-03-26T01:17:40.946Z,5.17
2018-03-26T01:18:40.944Z,5.19
2018-03-26T01:19:40.952Z,5.20
2018-03-26T01:20:40.958Z,5.30
2018-03-26T01:21:40.968Z,5.19
2018-03-26T01:22:40.977Z,5.17
2018-03-26T01:23:40.975Z,5.22
2018-03-26T01:24:40.989Z,5.22
2018-03-26T01:25:40.989Z,5.31
2018-03-26T01:26:41.000Z,5.25
2018-03-26T01:27:41.001Z,5.35
2018-03-26T01:28:41.024Z,5.35
2018-03-26T01:29:41.013Z,5.28
2018-03-26T01:30:41.019Z,5.31
2018-03-26T01:31:41.035Z,5.31
2018-03-26T01:32:41.037Z,5.35
2018-03-26T01:33:41.040Z,5.23
2018-03-26T01:34:41.051Z,5.12
2018-03-26T01:35:41.056Z,5.13
2018-03-26T01:36:41.074Z,5.17
2018-03-26T01:37:41.067Z,5.09
2018-03-26T01:38:41.076Z,5.09
2018-03-26T01:39:41.086Z,5.16
2018-03-26T01:40:41.100Z,5.13
2018-03-26T01:41:41.094Z,5.01
2018-03-26T01:42:41.104Z,4.99
2018-03-26T01:43:41.102Z,4.99
2018-03-26T01:44:41.107Z,4.99
2018-03-26T01:45:41.139Z,5.04
2018-03-26T01:46:41.125Z,4.98
2018-03-26T01:47:41.128Z,5.04
2018-03-26T01:48:41.140Z,4.98
2018-03-26T01:49:41.142Z,5.10
2018-03-26T01:50:41.146Z,5.09
2018-03-26T01:51:41.165Z,5.12
2018-03-26T01:52:41.158Z,5.20
2018-03-26T01:53:41.170Z,5.04
2018-03-26T01:54:41.173Z,5.02
2018-03-26T01:55:41.180Z,5.01
2018-03-26T01:56:41.183Z,4.83
2018-03-26T01:57:41.189Z,4.92
2018-03-26T01:58:41.204Z,4.91
2018-03-26T01:59:41.204Z,4.95
2018-03-26T02:00:41.212Z,4.99
2018-03-26T02:01:41.224Z,5.07
2018-03-26T02:02:41.222Z,5.12
2018-03-26T02:03:41.228Z,5.12
2018-03-26T02:04:41.283Z,5.20
2018-03-26T02:05:41.243Z,5.17
2018-03-26T02:06:41.247Z,5.27
2018-03-26T02:07:41.251Z,5.17
2018-03-26T02:08:41.257Z,4.94
2018-03-26T02:09:41.266Z,4.80
2018-03-26T02:10:41.274Z,4.73
2018-03-26T02:11:41.281Z,4.67
2018-03-26T02:12:41.342Z,4.67
2018-03-26T02:13:41.297Z,4.91
2018-03-26T02:14:41.295Z,4.91
2018-03-26T02:15:41.301Z,4.94
2018-03-26T02:16:41.307Z,4.95
2018-03-26T02:17:41.323Z,4.98
2018-03-26T02:18:41.326Z,4.89
2018-03-26T02:19:41.325Z,4.94
2018-03-26T02:20:41.336Z,4.98
2018-03-26T02:21:41.341Z,4.96
2018-03-26T02:22:41.464Z,4.96
2018-03-26T02:23:41.354Z,4.89
2018-03-26T02:24:41.362Z,4.99
2018-03-26T02:25:41.366Z,5.09
2018-03-26T02:26:41.403Z,5.12
2018-03-26T02:27:41.377Z,5.09
2018-03-26T02:28:41.384Z,5.22
2018-03-26T02:29:41.397Z,5.23
2018-03-26T02:30:41.399Z,5.12
2018-03-26T02:31:41.407Z,5.16
2018-03-26T02:32:41.498Z,5.23
2018-03-26T02:33:41.412Z,5.14
2018-03-26T02:34:41.417Z,5.12
2018-03-26T02:35:41.427Z,5.04
2018-03-26T02:36:41.430Z,5.12
2018-03-26T02:37:41.452Z,5.16
2018-03-26T02:38:41.444Z,5.25
2018-03-26T02:39:41.450Z,5.17
2018-03-26T02:40:41.456Z,5.16
2018-03-26T02:41:41.465Z,5.16
2018-03-26T02:42:41.471Z,5.16
2018-03-26T02:43:41.498Z,5.14
2018-03-26T02:44:41.481Z,5.14
2018-03-26T02:45:41.488Z,5.14
2018-03-26T02:46:41.493Z,5.23
2018-03-26T02:47:41.500Z,5.14
2018-03-26T02:48:41.510Z,5.23
2018-03-26T02:49:41.511Z,5.20
2018-03-26T02:50:41.562Z,5.25
2018-03-26T02:51:41.529Z,5.28
2018-03-26T02:52:41.531Z,5.16
2018-03-26T02:53:41.539Z,5.16
2018-03-26T02:54:41.545Z,5.19
2018-03-26T02:55:41.550Z,5.19
2018-03-26T02:56:41.555Z,5.28
2018-03-26T02:57:41.564Z,5.17
2018-03-26T02:58:41.569Z,5.17
2018-03-26T02:59:41.588Z,5.27
2018-03-26T03:00:41.595Z,5.30
2018-03-26T03:01:41.587Z,5.27
2018-03-26T03:02:41.595Z,5.23
2018-03-26T03:03:41.616Z,5.17
2018-03-26T03:04:41.610Z,4.99
2018-03-26T03:05:41.621Z,4.98
2018-03-26T03:06:41.632Z,4.86
2018-03-26T03:07:41.625Z,4.89
2018-03-26T03:08:41.630Z,4.79
2018-03-26T03:09:41.639Z,4.95
2018-03-26T03:10:41.642Z,4.92
2018-03-26T03:11:41.663Z,5.01
2018-03-26T03:12:41.655Z,4.94
2018-03-26T03:13:41.663Z,5.02
2018-03-26T03:14:41.673Z,5.13
2018-03-26T03:15:41.681Z,5.02
2018-03-26T03:16:41.689Z,4.89
2018-03-26T03:17:41.706Z,4.77
2018-03-26T03:18:41.697Z,4.73
2018-03-26T03:19:41.699Z,4.70
2018-03-26T03:20:41.707Z,4.55
2018-03-26T03:21:41.730Z,4.57
2018-03-26T03:22:41.719Z,4.57
2018-03-26T03:23:41.724Z,4.58
2018-03-26T03:24:41.748Z,4.62
2018-03-26T03:25:41.740Z,4.75
2018-03-26T03:26:41.747Z,4.72
2018-03-26T03:27:41.752Z,4.79
2018-03-26T03:28:41.761Z,4.83
2018-03-26T03:29:41.762Z,4.91
2018-03-26T03:30:41.773Z,4.83
2018-03-26T03:31:41.797Z,4.84
2018-03-26T03:32:41.779Z,4.98
2018-03-26T03:33:41.807Z,4.92
2018-03-26T03:34:49.498Z,4.98
2018-03-26T03:36:53.957Z,4.92
2018-03-26T03:37:46.355Z,4.89
2018-03-26T03:39:50.789Z,4.86
2018-03-26T03:40:50.761Z,4.86
2018-03-26T03:42:55.771Z,4.98
2018-03-26T03:43:55.270Z,4.99
2018-03-26T03:44:55.275Z,5.01
2018-03-26T03:45:55.276Z,4.99
2018-03-26T03:46:55.268Z,5.01
2018-03-26T03:47:55.264Z,5.04
2018-03-26T03:48:55.270Z,5.01
2018-03-26T03:49:55.286Z,4.99
2018-03-26T03:50:55.318Z,4.79
2018-03-26T03:51:55.293Z,4.73
2018-03-26T03:52:55.303Z,4.75
2018-03-26T03:53:55.301Z,4.80
2018-03-26T03:54:55.310Z,4.67
2018-03-26T03:55:55.329Z,4.73
2018-03-26T03:56:55.319Z,4.62
2018-03-26T03:57:55.324Z,4.61
2018-03-26T03:58:55.334Z,4.54
2018-03-26T03:59:55.339Z,4.42
2018-03-26T04:00:55.357Z,4.37
2018-03-26T04:01:55.352Z,4.59
2018-03-26T04:02:55.358Z,4.44
2018-03-26T04:03:55.364Z,4.42
2018-03-26T04:04:55.373Z,4.44
2018-03-26T04:05:55.375Z,4.47
2018-03-26T04:06:55.388Z,4.47
2018-03-26T04:07:55.387Z,4.61
2018-03-26T04:08:55.392Z,4.64
2018-03-26T04:09:55.400Z,4.52
2018-03-26T04:10:55.403Z,4.61
2018-03-26T04:11:55.419Z,4.62
2018-03-26T04:12:55.420Z,4.59
2018-03-26T04:13:55.423Z,4.69
2018-03-26T04:14:55.428Z,4.64
2018-03-26T04:15:55.437Z,4.62
2018-03-26T04:16:55.440Z,4.58
2018-03-26T04:17:55.482Z,4.52
2018-03-26T04:18:55.469Z,4.61
2018-03-26T04:19:55.461Z,4.62
2018-03-26T04:20:55.463Z,4.55
2018-03-26T04:21:55.469Z,4.55
2018-03-26T04:22:55.481Z,4.54
2018-03-26T04:23:55.481Z,4.58
2018-03-26T04:24:55.498Z,4.51
2018-03-26T04:25:55.491Z,4.55
2018-03-26T04:26:55.500Z,4.47
2018-03-26T04:27:55.505Z,4.36
2018-03-26T04:28:55.517Z,4.39
2018-03-26T04:29:55.516Z,4.42
2018-03-26T04:30:55.527Z,4.40
2018-03-26T04:31:55.528Z,4.39
2018-03-26T04:32:55.533Z,4.28
2018-03-26T04:33:55.538Z,4.25
2018-03-26T04:34:55.551Z,4.15
2018-03-26T04:35:55.552Z,4.19
2018-03-26T04:36:55.564Z,4.25
2018-03-26T04:37:55.563Z,4.26
2018-03-26T04:38:55.577Z,4.16
2018-03-26T04:39:55.576Z,4.10
2018-03-26T04:40:55.582Z,4.15
2018-03-26T04:41:55.587Z,4.01
2018-03-26T04:42:55.600Z,4.06
2018-03-26T04:43:55.597Z,4.06
2018-03-26T04:44:55.610Z,4.07
2018-03-26T04:45:55.609Z,4.08
2018-03-26T04:46:55.616Z,4.12
2018-03-26T04:47:55.621Z,4.15
2018-03-26T04:48:55.629Z,4.16
2018-03-26T04:49:55.639Z,4.18
2018-03-26T04:50:55.647Z,4.22
2018-03-26T04:51:55.649Z,4.21
2018-03-26T04:52:55.652Z,4.18
2018-03-26T04:53:55.654Z,4.15
2018-03-26T04:54:55.668Z,4.10
2018-03-26T04:55:55.667Z,4.07
2018-03-26T04:56:55.694Z,4.01
2018-03-26T04:57:55.678Z,4.04
2018-03-26T04:58:55.687Z,4.12
2018-03-26T04:59:55.691Z,4.06
2018-03-26T05:00:55.695Z,4.01
2018-03-26T05:01:55.699Z,4.01
2018-03-26T05:02:55.708Z,4.01
2018-03-26T05:03:55.724Z,4.01
2018-03-26T05:04:55.721Z,4.15
2018-03-26T05:05:55.726Z,4.12
2018-03-26T05:06:55.731Z,4.18
2018-03-26T05:07:55.737Z,4.18
2018-03-26T05:08:55.744Z,4.10
2018-03-26T05:09:55.761Z,4.21
2018-03-26T05:10:55.761Z,4.25
2018-03-26T05:11:55.764Z,4.29
2018-03-26T05:12:55.765Z,4.33
2018-03-26T05:13:55.769Z,4.28
2018-03-26T05:14:55.775Z,4.34
2018-03-26T05:15:55.785Z,4.19
2018-03-26T05:16:55.808Z,4.21
2018-03-26T05:17:55.794Z,4.24
2018-03-26T05:18:55.798Z,4.26
2018-03-26T05:19:55.805Z,4.24
2018-03-26T05:20:55.809Z,4.26
2018-03-26T05:21:55.820Z,4.18
2018-03-26T05:22:55.822Z,4.26
2018-03-26T05:23:55.854Z,4.21
2018-03-26T05:24:55.832Z,4.21
2018-03-26T05:25:55.838Z,4.28
2018-03-26T05:26:55.850Z,4.29
2018-03-26T05:27:55.855Z,4.33
2018-03-26T05:28:55.857Z,4.36
2018-03-26T05:29:55.862Z,4.39
2018-03-26T05:30:55.883Z,4.25
2018-03-26T05:31:55.873Z,4.29
2018-03-26T05:32:55.886Z,4.42
2018-03-26T05:33:55.886Z,4.33
2018-03-26T05:34:55.895Z,4.39
2018-03-26T05:35:55.899Z,4.18
2018-03-26T05:36:55.905Z,4.10
2018-03-26T05:37:55.914Z,4.14
2018-03-26T05:38:55.916Z,4.19
2018-03-26T05:39:55.921Z,4.07
2018-03-26T05:40:55.934Z,4.12
2018-03-26T05:41:55.940Z,4.16
2018-03-26T05:42:55.939Z,4.15
2018-03-26T05:43:55.946Z,4.14
2018-03-26T05:44:55.954Z,4.24
2018-03-26T05:45:55.962Z,4.28
2018-03-26T05:46:55.964Z,4.28
2018-03-26T05:47:55.973Z,4.26
2018-03-26T05:48:55.974Z,4.37
2018-03-26T05:49:55.995Z,4.37
2018-03-26T05:50:55.990Z,4.39
2018-03-26T05:51:55.989Z,4.36
2018-03-26T05:52:55.994Z,4.43
2018-03-26T05:53:55.999Z,4.52
2018-03-26T05:54:56.008Z,4.43
2018-03-26T05:55:56.012Z,4.47
2018-03-26T05:56:56.018Z,4.58
2018-03-26T05:57:56.036Z,4.61
2018-03-26T05:58:56.032Z,4.55
2018-03-26T05:59:56.038Z,4.58
2018-03-26T06:00:56.042Z,4.62
2018-03-26T06:01:56.046Z,4.59
2018-03-26T06:02:56.054Z,4.62
2018-03-26T06:03:56.072Z,4.77
2018-03-26T06:04:56.064Z,4.83
2018-03-26T06:05:56.076Z,4.92
2018-03-26T06:06:56.075Z,4.80
2018-03-26T06:07:56.084Z,4.89
2018-03-26T06:08:56.091Z,4.86
2018-03-26T06:09:56.102Z,4.83
2018-03-26T06:10:56.100Z,4.91
2018-03-26T06:11:56.172Z,4.94
2018-03-26T06:12:56.112Z,4.96
2018-03-26T06:13:56.121Z,4.99
2018-03-26T06:14:56.123Z,5.02
2018-03-26T06:15:56.131Z,4.95
2018-03-26T06:16:56.141Z,4.96
2018-03-26T06:17:56.146Z,4.91
2018-03-26T06:18:56.147Z,4.86
2018-03-26T06:19:56.153Z,4.83
2018-03-26T06:20:56.160Z,4.86
2018-03-26T06:21:56.166Z,4.84
2018-03-26T06:22:56.174Z,4.84
2018-03-26T06:23:56.177Z,4.86
2018-03-26T06:24:56.223Z,4.79
2018-03-26T06:25:56.190Z,4.77
2018-03-26T06:26:56.195Z,4.86
2018-03-26T06:27:56.201Z,4.83
2018-03-26T06:28:56.224Z,4.84
2018-03-26T06:29:56.213Z,4.98
2018-03-26T06:30:56.221Z,4.98
2018-03-26T06:31:56.226Z,5.12
2018-03-26T06:32:56.231Z,5.13
2018-03-26T06:33:56.238Z,5.19
2018-03-26T06:34:56.246Z,5.30
2018-03-26T06:35:56.254Z,5.23
2018-03-26T06:36:56.256Z,5.27
2018-03-26T06:37:56.267Z,5.28
2018-03-26T06:38:56.268Z,5.41
2018-03-26T06:39:56.319Z,5.30
2018-03-26T06:40:56.279Z,5.32
2018-03-26T06:41:56.294Z,5.23
2018-03-26T06:42:56.292Z,5.19
2018-03-26T06:43:56.303Z,5.27
2018-03-26T06:44:56.306Z,5.32
2018-03-26T06:45:56.323Z,5.40
2018-03-26T06:46:56.318Z,5.56
2018-03-26T06:47:56.331Z,5.49
2018-03-26T06:48:56.329Z,5.56
2018-03-26T06:49:56.339Z,5.59
2018-03-26T06:50:56.344Z,5.70
2018-03-26T06:51:56.352Z,5.77
2018-03-26T06:52:56.362Z,5.78
2018-03-26T06:53:56.373Z,5.89
2018-03-26T06:54:56.369Z,5.95
2018-03-26T06:55:56.378Z,5.98
2018-03-26T06:56:56.383Z,6.01
2018-03-26T06:57:56.393Z,5.98
2018-03-26T06:58:56.399Z,6.11
2018-03-26T06:59:56.412Z,6.21
2018-03-26T07:00:56.422Z,6.29
2018-03-26T07:01:56.414Z,6.26
2018-03-26T07:02:56.425Z,6.41
2018-03-26T07:03:56.427Z,6.38
2018-03-26T07:04:56.434Z,6.33
2018-03-26T07:05:56.443Z,6.43
2018-03-26T07:06:56.452Z,6.48
2018-03-26T07:07:56.456Z,6.54
2018-03-26T07:08:56.464Z,6.53
2018-03-26T07:09:56.468Z,6.53
2018-03-26T07:10:56.475Z,6.59
2018-03-26T07:11:56.483Z,6.61
2018-03-26T07:12:56.488Z,6.61
2018-03-26T07:13:56.500Z,6.68
2018-03-26T07:14:56.502Z,6.72
2018-03-26T07:15:56.508Z,6.68
2018-03-26T07:16:56.516Z,6.84
2018-03-26T07:17:56.526Z,6.84
2018-03-26T07:18:56.578Z,6.86
2018-03-26T07:19:56.542Z,6.87
2018-03-26T07:20:56.545Z,6.86
2018-03-26T07:21:56.552Z,6.87
2018-03-26T07:22:56.555Z,6.87
2018-03-26T07:23:56.564Z,6.91
2018-03-26T07:24:56.572Z,6.89
2018-03-26T07:25:56.581Z,6.94
2018-03-26T07:26:56.587Z,6.97
2018-03-26T07:27:56.594Z,6.97
2018-03-26T07:28:56.646Z,6.99
2018-03-26T07:29:56.614Z,6.98
2018-03-26T07:30:56.612Z,7.04
2018-03-26T07:31:56.627Z,7.08
2018-03-26T07:32:56.630Z,7.02
2018-03-26T07:33:56.635Z,7.02
2018-03-26T07:34:56.640Z,6.95
2018-03-26T07:35:56.661Z,7.01
2018-03-26T07:36:56.655Z,7.07
2018-03-26T07:37:56.665Z,7.08
2018-03-26T07:38:56.672Z,7.01
2018-03-26T07:39:56.677Z,7.08
2018-03-26T07:40:56.683Z,7.19
2018-03-26T07:41:56.694Z,7.26
2018-03-26T07:42:56.697Z,7.22
2018-03-26T07:43:56.711Z,7.24
2018-03-26T07:44:56.717Z,7.32
2018-03-26T07:45:56.723Z,7.31
2018-03-26T07:46:56.731Z,7.38
2018-03-26T07:47:56.732Z,7.35
2018-03-26T07:48:56.761Z,7.34
2018-03-26T07:49:56.758Z,7.35
2018-03-26T07:50:56.756Z,7.29
2018-03-26T07:51:56.814Z,7.41
2018-03-26T07:52:56.765Z,7.42
2018-03-26T07:53:56.778Z,7.56
2018-03-26T07:54:56.790Z,7.53
2018-03-26T07:55:56.797Z,7.59
2018-03-26T07:56:56.810Z,7.67
2018-03-26T07:57:56.844Z,7.62
2018-03-26T07:58:56.810Z,7.45
2018-03-26T07:59:56.817Z,7.55
2018-03-26T08:00:56.823Z,7.55
2018-03-26T08:01:56.831Z,7.47
2018-03-26T08:02:56.842Z,7.45
2018-03-26T08:03:56.845Z,7.41
2018-03-26T08:04:56.854Z,7.58
2018-03-26T08:05:56.860Z,7.60
2018-03-26T08:06:56.870Z,7.66
2018-03-26T08:07:56.877Z,7.79
2018-03-26T08:08:56.894Z,7.94
2018-03-26T08:09:56.901Z,8.03
2018-03-26T08:10:56.895Z,7.85
2018-03-26T08:11:56.903Z,7.84
2018-03-26T08:12:56.909Z,7.81
2018-03-26T08:13:56.915Z,8.02
2018-03-26T08:14:56.938Z,7.93
2018-03-26T08:15:56.932Z,8.08
2018-03-26T08:16:56.965Z,8.18
2018-03-26T08:17:56.951Z,8.22
2018-03-26T08:18:56.952Z,8.17
2018-03-26T08:19:56.960Z,8.15
2018-03-26T08:20:56.973Z,8.14
2018-03-26T08:21:56.978Z,8.26
2018-03-26T08:22:57.004Z,8.28
2018-03-26T08:23:56.992Z,8.22
2018-03-26T08:24:56.997Z,8.20
2018-03-26T08:25:57.004Z,8.32
2018-03-26T08:26:57.021Z,8.39
2018-03-26T08:27:57.026Z,8.42
2018-03-26T08:28:57.025Z,8.33
2018-03-26T08:29:57.038Z,8.30
2018-03-26T08:30:57.070Z,8.35
2018-03-26T08:31:57.055Z,8.29
2018-03-26T08:32:57.059Z,8.40
2018-03-26T08:33:57.067Z,8.32
2018-03-26T08:34:57.081Z,8.28
2018-03-26T08:35:57.080Z,8.21
2018-03-26T08:36:57.454Z,8.25
2018-03-26T08:37:57.096Z,8.17
2018-03-26T08:38:57.102Z,8.33
2018-03-26T08:39:57.111Z,8.33
2018-03-26T08:40:57.117Z,8.30
2018-03-26T08:41:57.127Z,8.37
2018-03-26T08:42:57.140Z,8.35
2018-03-26T08:43:57.139Z,8.32
2018-03-26T08:44:57.146Z,8.42
2018-03-26T08:45:57.154Z,8.51
2018-03-26T08:46:57.163Z,8.63
2018-03-26T08:47:57.173Z,8.62
2018-03-26T08:48:57.180Z,8.66
2018-03-26T08:49:57.281Z,8.73
2018-03-26T08:50:57.193Z,8.75
2018-03-26T08:51:57.200Z,8.96
2018-03-26T08:52:57.215Z,8.79
2018-03-26T08:53:57.215Z,8.86
2018-03-26T08:54:57.222Z,8.99
2018-03-26T08:55:57.238Z,9.10
2018-03-26T08:56:57.238Z,9.18
2018-03-26T08:57:57.251Z,9.18
2018-03-26T08:58:57.253Z,9.04
2018-03-26T08:59:57.262Z,8.91
2018-03-26T09:00:57.270Z,9.05
2018-03-26T09:01:57.286Z,9.02
2018-03-26T09:02:57.284Z,9.16
2018-03-26T09:03:57.292Z,9.15
2018-03-26T09:04:57.300Z,9.25
2018-03-26T09:05:57.347Z,9.30
2018-03-26T09:06:57.321Z,9.16
2018-03-26T09:07:57.330Z,9.25
2018-03-26T09:08:57.356Z,9.40
2018-03-26T09:09:57.336Z,9.31
2018-03-26T09:10:57.344Z,9.23
2018-03-26T09:11:57.477Z,9.40
2018-03-26T09:12:57.360Z,9.34
2018-03-26T09:13:57.370Z,9.12
2018-03-26T09:14:57.378Z,9.27
2018-03-26T09:15:57.389Z,9.27
2018-03-26T09:16:57.392Z,9.38
2018-03-26T09:17:57.399Z,9.42
2018-03-26T09:18:57.408Z,9.48
2018-03-26T09:19:57.419Z,9.63
2018-03-26T09:20:57.425Z,9.52
2018-03-26T09:21:57.438Z,9.53
2018-03-26T09:22:57.440Z,9.28
2018-03-26T09:23:57.448Z,9.50
2018-03-26T09:24:57.455Z,9.61
2018-03-26T09:25:57.463Z,9.64
2018-03-26T09:26:57.473Z,9.63
2018-03-26T09:27:57.490Z,9.53
2018-03-26T09:28:57.496Z,9.49
2018-03-26T09:29:57.495Z,9.57
2018-03-26T09:30:57.502Z,9.66
2018-03-26T09:31:57.511Z,9.86
2018-03-26T09:32:57.517Z,9.86
2018-03-26T09:33:57.536Z,9.82
2018-03-26T09:34:57.539Z,9.83
2018-03-26T09:35:57.544Z,9.81
2018-03-26T09:36:57.556Z,9.97
2018-03-26T09:37:57.564Z,10.00
2018-03-26T09:38:57.569Z,10.01
2018-03-26T09:39:57.576Z,10.15
2018-03-26T09:40:57.592Z,10.09
2018-03-26T09:41:57.591Z,10.09
2018-03-26T09:42:57.612Z,10.19
2018-03-26T09:43:57.609Z,10.28
2018-03-26T09:44:57.616Z,10.39
2018-03-26T09:45:57.624Z,10.53
2018-03-26T09:46:57.657Z,10.53
2018-03-26T09:47:57.643Z,10.58
2018-03-26T09:48:57.651Z,10.63
2018-03-26T09:49:57.657Z,10.73
2018-03-26T09:50:57.680Z,10.65
2018-03-26T09:51:57.676Z,10.73
2018-03-26T09:52:57.682Z,10.80
2018-03-26T09:53:57.692Z,10.76
2018-03-26T09:54:57.698Z,10.89
2018-03-26T09:55:57.712Z,10.80
2018-03-26T09:56:57.721Z,10.76
2018-03-26T09:57:57.726Z,10.70
2018-03-26T09:58:57.733Z,10.73
2018-03-26T09:59:57.748Z,10.68
2018-03-26T10:00:57.752Z,10.86
2018-03-26T10:01:57.757Z,11.07
2018-03-26T10:02:57.773Z,11.10
2018-03-26T10:03:57.778Z,11.14
2018-03-26T10:04:57.797Z,10.98
2018-03-26T10:05:57.797Z,10.83
2018-03-26T10:06:57.804Z,10.86
2018-03-26T10:07:57.813Z,10.74
2018-03-26T10:08:57.821Z,10.70
2018-03-26T10:09:57.826Z,10.81
2018-03-26T10:10:57.836Z,10.84
2018-03-26T10:11:57.852Z,10.92
2018-03-26T10:12:57.862Z,11.07
2018-03-26T10:13:57.862Z,11.20
2018-03-26T10:14:57.891Z,11.27
2018-03-26T10:15:57.888Z,11.44
2018-03-26T10:16:57.891Z,11.43
2018-03-26T10:17:57.899Z,11.54
2018-03-26T10:18:57.909Z,11.47
2018-03-26T10:19:57.914Z,11.44
2018-03-26T10:20:57.971Z,11.34
2018-03-26T10:21:57.939Z,11.10
2018-03-26T10:22:57.941Z,10.98
2018-03-26T10:23:57.950Z,10.88
2018-03-26T10:24:57.965Z,10.80
2018-03-26T10:25:57.968Z,10.66
2018-03-26T10:26:57.976Z,10.53
2018-03-26T10:27:57.987Z,10.42
2018-03-26T10:28:57.997Z,10.39
2018-03-26T10:29:58.003Z,10.47
2018-03-26T10:30:58.013Z,10.36
2018-03-26T10:31:58.027Z,10.32
2018-03-26T10:32:58.027Z,10.32
2018-03-26T10:33:58.035Z,10.32
2018-03-26T10:34:58.045Z,10.26
2018-03-26T10:35:58.052Z,10.21
2018-03-26T10:36:58.061Z,10.14
2018-03-26T10:37:58.072Z,10.17
2018-03-26T10:38:58.077Z,10.18
2018-03-26T10:39:58.087Z,10.19
2018-03-26T10:40:58.129Z,10.15
2018-03-26T10:41:58.104Z,10.32
2018-03-26T10:42:58.115Z,10.30
2018-03-26T10:43:58.123Z,10.36
2018-03-26T10:44:58.131Z,10.22
2018-03-26T10:45:58.138Z,10.36
2018-03-26T10:46:58.153Z,10.33
2018-03-26T10:47:58.159Z,10.28
2018-03-26T10:48:58.174Z,10.40
2018-03-26T10:49:58.173Z,10.40
2018-03-26T10:50:58.180Z,10.33
2018-03-26T10:51:58.192Z,10.28
2018-03-26T10:52:58.194Z,10.37
2018-03-26T10:53:58.207Z,10.26
2018-03-26T10:54:58.214Z,10.28
2018-03-26T10:55:58.221Z,10.34
2018-03-26T10:56:58.232Z,10.32
2018-03-26T10:57:58.240Z,10.42
2018-03-26T10:58:58.255Z,10.34
2018-03-26T10:59:58.252Z,10.40
2018-03-26T11:00:58.264Z,10.37
2018-03-26T11:01:58.273Z,10.43
2018-03-26T11:02:58.277Z,10.52
2018-03-26T11:03:58.287Z,10.56
2018-03-26T11:04:58.294Z,10.56
2018-03-26T11:05:58.306Z,10.58
2018-03-26T11:06:58.318Z,10.59
2018-03-26T11:07:58.322Z,10.55
2018-03-26T11:08:58.329Z,10.47
2018-03-26T11:09:58.344Z,10.56
2018-03-26T11:10:58.346Z,10.56
2018-03-26T11:11:58.356Z,10.52
2018-03-26T11:12:58.361Z,10.55
2018-03-26T11:13:58.378Z,10.62
2018-03-26T11:14:58.399Z,10.62
2018-03-26T11:15:58.388Z,10.55
2018-03-26T11:16:58.396Z,10.58
2018-03-26T11:17:58.406Z,10.60
2018-03-26T11:18:58.417Z,10.55
2018-03-26T11:19:58.425Z,10.56
2018-03-26T11:20:58.428Z,10.51
2018-03-26T11:21:58.438Z,10.55
2018-03-26T11:22:58.450Z,10.59
2018-03-26T11:23:58.455Z,10.56
2018-03-26T11:24:58.474Z,10.59
2018-03-26T11:25:58.474Z,10.63
2018-03-26T11:26:58.485Z,10.68
2018-03-26T11:27:58.495Z,10.70
2018-03-26T11:28:58.503Z,10.81
2018-03-26T11:29:58.506Z,10.88
2018-03-26T11:30:58.517Z,10.88
2018-03-26T11:31:58.533Z,10.99
2018-03-26T11:32:58.534Z,11.06
2018-03-26T11:33:58.542Z,11.11
2018-03-26T11:34:58.548Z,11.02
2018-03-26T11:35:58.560Z,11.09
2018-03-26T11:36:58.568Z,11.19
2018-03-26T11:37:58.580Z,11.35
2018-03-26T11:38:58.583Z,11.34
2018-03-26T11:39:58.594Z,11.38
2018-03-26T11:40:58.609Z,11.32
2018-03-26T11:41:58.616Z,11.39
2018-03-26T11:42:58.639Z,11.32
2018-03-26T11:43:58.630Z,11.32
2018-03-26T11:44:58.635Z,11.20
2018-03-26T11:45:58.648Z,11.20
2018-03-26T11:46:58.654Z,11.32
2018-03-26T11:47:58.663Z,11.24
2018-03-26T11:48:58.672Z,11.07
2018-03-26T11:49:58.680Z,11.09
2018-03-26T11:50:58.697Z,11.06
2018-03-26T11:51:58.701Z,11.07
2018-03-26T11:52:58.706Z,11.02
2018-03-26T11:53:58.717Z,11.02
2018-03-26T11:54:58.724Z,11.06
2018-03-26T11:55:58.745Z,11.01
2018-03-26T11:56:58.747Z,11.07
2018-03-26T11:57:58.753Z,11.06
2018-03-26T11:58:58.760Z,10.96
2018-03-26T11:59:58.772Z,11.02
2018-03-26T12:00:58.778Z,10.98
2018-03-26T12:01:58.800Z,11.03
2018-03-26T12:02:58.795Z,11.14
2018-03-26T12:03:58.811Z,11.09
2018-03-26T12:04:59.226Z,11.14
2018-03-26T12:05:58.820Z,11.27
2018-03-26T12:06:58.830Z,11.25
2018-03-26T12:07:58.839Z,11.16
2018-03-26T12:08:58.847Z,11.20
2018-03-26T12:09:58.858Z,11.32
2018-03-26T12:10:58.871Z,11.36
2018-03-26T12:11:58.877Z,11.49
2018-03-26T12:12:58.881Z,11.47
2018-03-26T12:13:58.909Z,11.46
2018-03-26T12:14:58.900Z,11.54
2018-03-26T12:15:59.769Z,11.62
2018-03-26T12:16:58.917Z,11.72
2018-03-26T12:17:58.928Z,11.74
2018-03-26T12:18:59.001Z,11.80
2018-03-26T12:19:58.946Z,11.78
2018-03-26T12:20:58.955Z,11.82
2018-03-26T12:21:58.962Z,11.75
2018-03-26T12:22:58.972Z,11.61
2018-03-26T12:23:58.985Z,11.54
2018-03-26T12:24:59.017Z,11.54
2018-03-26T12:25:59.009Z,11.46
2018-03-26T12:26:59.016Z,11.36
2018-03-26T12:27:59.017Z,11.38
2018-03-26T12:28:59.026Z,11.27
2018-03-26T12:29:59.041Z,11.21
2018-03-26T12:30:59.047Z,11.17
2018-03-26T12:31:59.197Z,11.17
2018-03-26T12:32:59.063Z,11.10
2018-03-26T12:33:59.073Z,11.03
2018-03-26T12:34:59.079Z,10.99
2018-03-26T12:35:59.091Z,10.80
2018-03-26T12:36:59.109Z,10.86
2018-03-26T12:37:59.108Z,10.83
2018-03-26T12:38:59.118Z,10.81
2018-03-26T12:39:59.163Z,10.86
2018-03-26T12:40:59.135Z,10.80
2018-03-26T12:41:59.150Z,10.77
2018-03-26T12:42:59.171Z,10.80
2018-03-26T12:43:59.780Z,10.74
2018-03-26T12:44:59.174Z,10.65
2018-03-26T12:45:59.180Z,10.70
2018-03-26T12:46:59.189Z,10.81
2018-03-26T12:47:59.196Z,10.84
2018-03-26T12:48:59.211Z,10.84
2018-03-26T12:49:59.214Z,10.81
2018-03-26T12:50:59.220Z,10.68
2018-03-26T12:51:59.230Z,10.77
2018-03-26T12:52:59.237Z,10.81
2018-03-26T12:53:59.250Z,10.84
2018-03-26T12:54:59.265Z,10.99
2018-03-26T12:55:59.272Z,11.07
2018-03-26T12:56:59.275Z,11.06
2018-03-26T12:57:59.287Z,11.16
2018-03-26T12:58:59.293Z,11.06
2018-03-26T12:59:59.306Z,11.10
2018-03-26T13:00:59.320Z,11.07
2018-03-26T13:01:59.321Z,11.03
2018-03-26T13:02:59.329Z,11.01
2018-03-26T13:03:59.337Z,10.98
2018-03-26T13:04:59.499Z,11.06
2018-03-26T13:05:59.356Z,10.84
2018-03-26T13:06:59.363Z,10.81
2018-03-26T13:07:59.376Z,10.83
2018-03-26T13:08:59.377Z,10.84
2018-03-26T13:09:59.389Z,10.80
2018-03-26T13:10:59.396Z,10.77
2018-03-26T13:11:59.406Z,10.78
2018-03-26T13:12:59.412Z,10.78
2018-03-26T13:13:59.433Z,10.73
2018-03-26T13:14:59.431Z,10.71
2018-03-26T13:15:59.440Z,10.66